Time;durP1;ratioP1;P1;durP2;ratioP2;P2;SDS_P1;SDS_P2;PMS_P1;PMS_P2;Temp;Humidity;BMP_temperature;BMP_pressure;BME280_temperature;BME280_humidity;BME280_pressure;Samples;Min_cycle;Max_cycle;Signal;HPM_P1;HPM_P2
2022/01/29 00:00:47;;;;;;;13.18;5.82;;;0.60;98.00;;;;;;5041207;28;20026;-68
2022/01/29 00:03:13;;;;;;;16.15;8.65;;;0.50;98.00;;;;;;5048227;28;20112;-68
2022/01/29 00:05:38;;;;;;;14.15;7.38;;;0.30;98.00;;;;;;5046890;28;20029;-68
2022/01/29 00:08:04;;;;;;;8.02;3.88;;;0.20;98.00;;;;;;5048500;28;20024;-69
2022/01/29 00:10:31;;;;;;;6.57;3.30;;;0.30;98.00;;;;;;5061709;28;20026;-67
2022/01/29 00:12:57;;;;;;;12.80;6.03;;;0.60;98.00;;;;;;5060986;28;20025;-68
2022/01/29 00:15:26;;;;;;;8.13;4.95;;;0.70;98.00;;;;;;5037168;28;20032;-69
2022/01/29 00:17:51;;;;;;;5.60;2.90;;;0.60;98.00;;;;;;5049813;28;20426;-67
2022/01/29 00:20:17;;;;;;;6.80;3.25;;;0.70;98.00;;;;;;5047405;28;20114;-68
2022/01/29 00:22:43;;;;;;;6.32;2.58;;;0.90;98.00;;;;;;5044302;28;20435;-68
2022/01/29 00:25:09;;;;;;;6.45;2.85;;;1.00;98.00;;;;;;5036374;28;20071;-68
2022/01/29 00:27:36;;;;;;;6.45;3.42;;;1.10;98.00;;;;;;5046858;28;20029;-68
2022/01/29 00:30:07;;;;;;;6.43;3.88;;;1.10;98.00;;;;;;5053051;28;20422;-68
2022/01/29 00:32:34;;;;;;;6.45;3.13;;;1.00;98.00;;;;;;5041374;28;20025;-68
2022/01/29 00:35:00;;;;;;;7.80;3.00;;;0.80;98.00;;;;;;5044577;28;20028;-68
2022/01/29 00:37:26;;;;;;;9.15;3.80;;;0.80;98.00;;;;;;5038149;28;20445;-68
2022/01/29 00:39:52;;;;;;;9.10;4.43;;;0.80;98.00;;;;;;5038087;28;20029;-68
2022/01/29 00:42:17;;;;;;;8.32;4.00;;;0.80;98.00;;;;;;5055386;28;20020;-68
2022/01/29 00:44:45;;;;;;;8.32;3.60;;;0.80;98.00;;;;;;5046473;28;20079;-68
2022/01/29 00:47:11;;;;;;;6.45;2.97;;;0.70;98.00;;;;;;5065942;28;20016;-69
2022/01/29 00:49:40;;;;;;;7.80;3.30;;;0.70;98.00;;;;;;5048254;28;20013;-68
2022/01/29 00:52:05;;;;;;;6.85;3.03;;;0.80;98.00;;;;;;5051474;28;20029;-68
2022/01/29 00:54:31;;;;;;;6.90;3.00;;;0.90;98.00;;;;;;5042514;28;20033;-68
2022/01/29 00:56:57;;;;;;;5.75;2.60;;;0.90;98.00;;;;;;5055232;28;20068;-68
2022/01/29 00:59:23;;;;;;;7.15;2.63;;;1.00;98.00;;;;;;5047659;28;20060;-68
2022/01/29 01:01:49;;;;;;;5.68;2.60;;;1.00;98.00;;;;;;5051630;28;21142;-67
2022/01/29 01:04:15;;;;;;;6.35;2.83;;;1.00;98.00;;;;;;5055418;28;20224;-68
2022/01/29 01:06:40;;;;;;;6.35;2.55;;;0.90;98.00;;;;;;5055202;28;20029;-68
2022/01/29 01:09:06;;;;;;;8.27;2.40;;;1.00;98.00;;;;;;5045130;28;20022;-68
2022/01/29 01:11:32;;;;;;;4.20;2.10;;;1.10;97.90;;;;;;5046358;28;20024;-68
2022/01/29 01:14:00;;;;;;;7.75;3.83;;;1.10;97.30;;;;;;5051101;28;20017;-69
2022/01/29 01:16:26;;;;;;;9.00;3.17;;;1.00;97.60;;;;;;5051900;28;20031;-68
2022/01/29 01:18:51;;;;;;;3.92;2.10;;;0.80;98.00;;;;;;5064214;28;20025;-68
2022/01/29 01:21:23;;;;;;;6.00;2.47;;;0.70;98.00;;;;;;5052433;28;20440;-68
2022/01/29 01:23:48;;;;;;;4.28;2.03;;;0.80;98.00;;;;;;5047817;28;20047;-68
2022/01/29 01:26:18;;;;;;;5.35;2.28;;;0.90;98.00;;;;;;5050626;28;20029;-69
2022/01/29 01:28:43;;;;;;;6.43;2.08;;;0.90;97.80;;;;;;5038210;28;20418;-68
2022/01/29 01:31:09;;;;;;;4.63;2.20;;;0.90;97.90;;;;;;5038666;28;20056;-68
2022/01/29 01:33:35;;;;;;;10.45;2.50;;;0.90;97.80;;;;;;5052336;28;20032;-68
2022/01/29 01:36:04;;;;;;;4.15;1.92;;;0.80;97.90;;;;;;5040519;28;20037;-68
2022/01/29 01:38:42;;;;;;;6.43;1.90;;;0.90;97.80;;;;;;5043370;28;20453;-68
2022/01/29 01:41:12;;;;;;;3.97;2.00;;;0.90;97.60;;;;;;5050744;28;20384;-68
2022/01/29 01:43:38;;;;;;;5.70;2.00;;;1.00;97.70;;;;;;5048943;28;20345;-68
2022/01/29 01:46:04;;;;;;;4.40;1.83;;;1.00;97.60;;;;;;5042602;28;20040;-68
2022/01/29 01:48:30;;;;;;;4.30;1.80;;;1.00;97.70;;;;;;5039333;28;20028;-68
2022/01/29 01:50:55;;;;;;;2.78;1.67;;;1.10;97.10;;;;;;5048377;28;20369;-69
2022/01/29 01:53:22;;;;;;;4.03;1.60;;;1.20;96.50;;;;;;5039133;28;20022;-68
2022/01/29 01:55:48;;;;;;;3.83;1.50;;;1.30;95.40;;;;;;5045396;28;20074;-68
2022/01/29 01:58:15;;;;;;;3.85;1.63;;;1.40;94.50;;;;;;5051916;28;20330;-68
2022/01/29 02:00:41;;;;;;;2.75;1.60;;;1.60;93.50;;;;;;5039819;28;20071;-69
2022/01/29 02:03:08;;;;;;;7.75;1.52;;;1.70;93.30;;;;;;5052681;28;20361;-69
2022/01/29 02:05:34;;;;;;;6.32;2.28;;;1.80;92.70;;;;;;5047781;28;20021;-69
2022/01/29 02:08:02;;;;;;;6.65;2.13;;;1.60;94.70;;;;;;5056151;28;20027;-68
2022/01/29 02:10:28;;;;;;;6.25;2.28;;;1.50;94.40;;;;;;5044966;28;20070;-68
2022/01/29 02:12:57;;;;;;;5.43;1.80;;;1.50;93.80;;;;;;5058434;28;20060;-68
2022/01/29 02:15:24;;;;;;;5.07;1.63;;;1.50;94.50;;;;;;5058011;28;20025;-68
2022/01/29 02:17:50;;;;;;;4.00;1.80;;;1.40;94.40;;;;;;5048035;28;20029;-68
2022/01/29 02:20:22;;;;;;;3.55;1.67;;;1.50;93.80;;;;;;5066490;28;20108;-68
2022/01/29 02:22:47;;;;;;;4.57;2.00;;;1.40;95.00;;;;;;5054386;28;20444;-68
2022/01/29 02:25:39;;;;;;;5.43;1.90;;;1.20;96.10;;;;;;5042854;28;20041;-69
2022/01/29 02:28:07;;;;;;;4.68;1.92;;;1.10;96.80;;;;;;5044964;28;20025;-69
2022/01/29 02:30:34;;;;;;;4.18;2.00;;;1.00;97.10;;;;;;5053044;28;20020;-68
2022/01/29 02:33:04;;;;;;;6.90;2.40;;;0.90;97.40;;;;;;5038452;28;20028;-69
2022/01/29 02:35:30;;;;;;;3.85;2.05;;;0.90;97.80;;;;;;5039351;28;20025;-69
2022/01/29 02:37:56;;;;;;;6.80;2.10;;;0.90;97.80;;;;;;5045380;28;20029;-69
2022/01/29 02:40:22;;;;;;;3.97;2.00;;;0.70;98.00;;;;;;5058600;28;20029;-68
2022/01/29 02:42:50;;;;;;;5.00;2.10;;;0.70;98.00;;;;;;5045095;28;20424;-69
2022/01/29 02:45:16;;;;;;;5.45;2.45;;;0.70;98.00;;;;;;5059301;28;20025;-69
2022/01/29 02:47:42;;;;;;;6.95;2.60;;;0.70;98.00;;;;;;5054360;28;20070;-69
2022/01/29 02:50:08;;;;;;;6.75;2.33;;;0.70;98.00;;;;;;5057214;28;20043;-69
2022/01/29 02:52:34;;;;;;;6.40;2.30;;;0.70;98.00;;;;;;5045447;28;20428;-69
2022/01/29 02:55:00;;;;;;;6.32;2.63;;;0.70;98.00;;;;;;5059013;28;20100;-69
2022/01/29 02:57:28;;;;;;;4.50;2.28;;;0.60;98.00;;;;;;5056661;28;20104;-68
2022/01/29 03:00:00;;;;;;;7.78;2.40;;;0.50;98.00;;;;;;5049626;28;20028;-68
2022/01/29 03:02:27;;;;;;;5.68;2.90;;;0.60;98.00;;;;;;5047823;28;20055;-69
2022/01/29 03:04:54;;;;;;;4.70;2.75;;;0.60;98.00;;;;;;5038580;28;20101;-68
2022/01/29 03:07:20;;;;;;;5.82;3.30;;;0.60;98.00;;;;;;5042509;28;20025;-68
2022/01/29 03:09:45;;;;;;;7.13;3.03;;;0.60;97.70;;;;;;5049053;28;20029;-69
2022/01/29 03:12:11;;;;;;;6.70;3.13;;;0.70;97.60;;;;;;5048817;28;20099;-69
2022/01/29 03:14:37;;;;;;;7.90;3.55;;;0.70;97.00;;;;;;5038570;28;20032;-69
2022/01/29 03:17:02;;;;;;;6.00;2.75;;;0.60;96.70;;;;;;5052314;28;20028;-69
2022/01/29 03:19:28;;;;;;;5.57;2.75;;;0.70;96.60;;;;;;5074485;28;20028;-69
2022/01/29 03:21:54;;;;;;;6.40;3.05;;;0.80;95.60;;;;;;5045570;28;20357;-69
2022/01/29 03:24:20;;;;;;;5.38;2.65;;;0.90;95.40;;;;;;5042935;28;20054;-69
2022/01/29 03:26:45;;;;;;;6.45;2.65;;;1.00;94.90;;;;;;5050780;28;20025;-68
2022/01/29 03:29:11;;;;;;;7.38;2.65;;;1.00;94.20;;;;;;5053577;28;20062;-68
2022/01/29 03:31:38;;;;;;;6.20;2.75;;;1.10;93.60;;;;;;5047554;28;20045;-68
2022/01/29 03:34:03;;;;;;;4.82;2.40;;;1.20;93.40;;;;;;5049821;28;20024;-67
2022/01/29 03:36:29;;;;;;;5.60;2.28;;;1.30;93.30;;;;;;5046772;28;20029;-67
2022/01/29 03:38:55;;;;;;;7.10;2.40;;;1.30;92.70;;;;;;5050688;28;20033;-67
2022/01/29 03:41:20;;;;;;;5.05;2.40;;;1.40;92.30;;;;;;5058161;28;20025;-67
2022/01/29 03:43:50;;;;;;;5.35;2.20;;;1.50;92.10;;;;;;5042181;28;20032;-69
2022/01/29 03:46:16;;;;;;;7.97;3.00;;;1.50;91.90;;;;;;5041995;28;20021;-69
2022/01/29 03:48:41;;;;;;;4.55;2.50;;;1.60;91.70;;;;;;5049658;28;20106;-69
2022/01/29 03:51:07;;;;;;;7.22;2.53;;;1.60;91.30;;;;;;5037889;28;20029;-69
2022/01/29 03:53:33;;;;;;;4.88;2.33;;;1.70;91.20;;;;;;5037818;28;20085;-69
2022/01/29 03:55:59;;;;;;;4.65;2.28;;;1.70;91.20;;;;;;5040724;28;20052;-69
2022/01/29 03:58:24;;;;;;;5.70;2.40;;;1.70;91.20;;;;;;5039249;28;20036;-69
2022/01/29 04:00:50;;;;;;;6.10;2.17;;;1.70;91.00;;;;;;5044498;28;20025;-69
2022/01/29 04:03:22;;;;;;;4.85;2.20;;;1.80;90.70;;;;;;5055478;28;20029;-68
2022/01/29 04:05:47;;;;;;;4.53;2.00;;;2.00;90.20;;;;;;5055567;28;20033;-68
2022/01/29 04:08:16;;;;;;;4.10;1.75;;;2.20;89.70;;;;;;5045495;28;20044;-68
2022/01/29 04:10:42;;;;;;;4.15;2.20;;;2.30;89.10;;;;;;5055750;28;20025;-68
2022/01/29 04:13:13;;;;;;;4.22;2.13;;;2.50;88.60;;;;;;5051949;28;20048;-68
2022/01/29 04:15:38;;;;;;;3.85;1.60;;;2.60;88.20;;;;;;5048329;28;20414;-68
2022/01/29 04:18:07;;;;;;;4.03;1.60;;;2.60;87.50;;;;;;5054770;28;20112;-69
2022/01/29 04:20:33;;;;;;;3.85;1.90;;;2.60;87.50;;;;;;5052764;28;20298;-69
2022/01/29 04:22:58;;;;;;;5.82;2.92;;;2.70;87.60;;;;;;5036158;28;20041;-68
2022/01/29 04:25:24;;;;;;;4.22;1.90;;;2.60;87.80;;;;;;5044055;28;20456;-68
2022/01/29 04:27:53;;;;;;;5.25;1.90;;;2.60;87.50;;;;;;5051037;28;20032;-69
2022/01/29 04:30:28;;;;;;;10.38;3.85;;;2.70;87.80;;;;;;5043948;28;20029;-69
2022/01/29 04:32:59;;;;;;;4.00;2.10;;;2.60;87.50;;;;;;5039335;28;20025;-69
2022/01/29 04:35:24;;;;;;;5.32;2.10;;;2.60;87.50;;;;;;5038132;28;20136;-68
2022/01/29 04:37:50;;;;;;;4.60;2.30;;;2.60;87.80;;;;;;5050428;28;20453;-69
2022/01/29 04:40:18;;;;;;;5.13;2.30;;;2.50;87.70;;;;;;5038524;28;20026;-68
2022/01/29 04:42:44;;;;;;;4.75;2.20;;;2.60;87.60;;;;;;5041327;28;20409;-68
2022/01/29 04:45:09;;;;;;;4.38;2.40;;;2.70;86.80;;;;;;5052255;28;20041;-69
2022/01/29 04:47:35;;;;;;;3.58;1.90;;;2.80;86.70;;;;;;5037026;28;20337;-69
2022/01/29 04:50:01;;;;;;;5.15;1.75;;;2.80;86.50;;;;;;5042606;28;20029;-69
2022/01/29 04:52:27;;;;;;;8.68;4.03;;;2.80;86.50;;;;;;5036730;28;20030;-68
2022/01/29 04:54:52;;;;;;;3.83;2.08;;;2.80;86.20;;;;;;5045838;28;20021;-68
2022/01/29 04:57:18;;;;;;;6.05;2.85;;;2.90;85.70;;;;;;5037590;28;20167;-69
2022/01/29 04:59:44;;;;;;;4.20;1.80;;;2.80;86.20;;;;;;5048001;28;20510;-68
2022/01/29 05:02:10;;;;;;;4.00;1.80;;;2.80;86.30;;;;;;5054555;28;20021;-68
2022/01/29 05:04:36;;;;;;;4.72;1.90;;;2.80;86.30;;;;;;5053568;28;20028;-69
2022/01/29 05:07:02;;;;;;;3.80;2.00;;;2.70;86.30;;;;;;5050586;28;20050;-69
2022/01/29 05:09:28;;;;;;;6.18;2.17;;;2.60;86.60;;;;;;5048049;28;20025;-68
2022/01/29 05:11:58;;;;;;;5.35;2.10;;;2.60;87.00;;;;;;5041020;28;20044;-69
2022/01/29 05:14:42;;;;;;;7.40;1.73;;;2.60;86.90;;;;;;5051213;28;20040;-69
2022/01/29 05:27:53;;;;;;;6.88;3.47;;;2.40;86.80;;;;;;5039014;28;20044;-68
2022/01/29 05:30:18;;;;;;;3.60;1.80;;;2.50;86.80;;;;;;5040099;28;20029;-68
2022/01/29 05:32:44;;;;;;;4.43;1.95;;;2.50;86.60;;;;;;5037097;28;20041;-68
2022/01/29 05:35:10;;;;;;;7.40;1.77;;;2.50;86.20;;;;;;5046795;28;20029;-69
2022/01/29 05:37:35;;;;;;;5.68;2.38;;;2.50;86.60;;;;;;5048589;28;20029;-69
2022/01/29 05:40:01;;;;;;;5.38;2.53;;;2.40;86.80;;;;;;5038577;28;20063;-68
2022/01/29 05:42:27;;;;;;;7.00;2.55;;;2.40;86.80;;;;;;5042133;28;20082;-69
2022/01/29 05:44:52;;;;;;;6.80;2.40;;;2.30;87.10;;;;;;5052354;28;20108;-69
2022/01/29 05:47:18;;;;;;;4.85;2.47;;;2.30;87.10;;;;;;5037905;28;20033;-69
2022/01/29 05:49:43;;;;;;;6.18;2.50;;;2.20;87.60;;;;;;5046529;28;20029;-68
2022/01/29 05:52:09;;;;;;;5.20;2.30;;;2.10;87.80;;;;;;5038188;28;20147;-69
2022/01/29 05:54:35;;;;;;;5.05;2.50;;;2.10;87.90;;;;;;5041932;28;20052;-69
2022/01/29 05:57:00;;;;;;;4.88;2.53;;;2.10;87.80;;;;;;5043749;28;20025;-69
2022/01/29 05:59:26;;;;;;;6.70;2.58;;;2.10;87.90;;;;;;5044858;28;20044;-68
2022/01/29 06:01:52;;;;;;;5.78;2.38;;;2.10;88.00;;;;;;5038847;28;20064;-69
2022/01/29 06:04:17;;;;;;;6.97;2.45;;;2.10;87.60;;;;;;5036557;28;20029;-69
2022/01/29 06:06:45;;;;;;;5.18;2.10;;;2.20;87.70;;;;;;5044438;28;20036;-68
2022/01/29 06:09:11;;;;;;;7.13;2.80;;;2.20;87.80;;;;;;5042639;28;20399;-68
2022/01/29 06:11:36;;;;;;;4.43;2.78;;;2.20;87.50;;;;;;5048880;28;20025;-68
2022/01/29 06:14:05;;;;;;;5.93;2.67;;;2.20;87.70;;;;;;5050918;28;20045;-68
2022/01/29 06:16:30;;;;;;;6.68;2.90;;;2.20;87.70;;;;;;5035360;28;20053;-69
2022/01/29 06:18:56;;;;;;;6.47;2.67;;;2.20;87.90;;;;;;5033772;28;20068;-69
2022/01/29 06:21:22;;;;;;;5.47;2.80;;;2.10;88.10;;;;;;5039105;28;20303;-69
2022/01/29 06:23:50;;;;;;;6.97;3.15;;;2.10;88.40;;;;;;5035391;28;20085;-68
2022/01/29 06:26:16;;;;;;;4.43;2.38;;;2.00;88.70;;;;;;5035311;28;20141;-68
2022/01/29 06:28:42;;;;;;;8.77;3.55;;;2.00;88.80;;;;;;5036387;28;20067;-67
2022/01/29 06:31:09;;;;;;;7.18;3.08;;;2.00;88.90;;;;;;5043898;28;20029;-67
2022/01/29 06:33:35;;;;;;;7.80;4.07;;;2.00;89.20;;;;;;5044077;28;20037;-67
2022/01/29 06:36:01;;;;;;;5.68;2.80;;;2.00;89.30;;;;;;5042103;28;20033;-67
2022/01/29 06:38:27;;;;;;;7.63;3.53;;;2.00;89.20;;;;;;5046334;28;20035;-70
2022/01/29 06:40:53;;;;;;;6.82;3.10;;;2.00;89.20;;;;;;5053993;28;20025;-69
2022/01/29 06:43:18;;;;;;;6.55;2.80;;;2.00;89.00;;;;;;5043598;28;20030;-69
2022/01/29 06:45:45;;;;;;;8.88;2.80;;;2.00;88.60;;;;;;5045875;28;20476;-69
2022/01/29 06:48:12;;;;;;;7.30;3.17;;;2.00;88.50;;;;;;5034838;28;20025;-69
2022/01/29 06:50:38;;;;;;;5.95;2.70;;;2.00;89.00;;;;;;5045382;28;20100;-69
2022/01/29 06:53:05;;;;;;;5.75;2.60;;;2.00;88.60;;;;;;5052489;28;20071;-69
2022/01/29 06:55:32;;;;;;;6.43;3.65;;;2.00;88.50;;;;;;5037997;28;20369;-69
2022/01/29 06:57:57;;;;;;;6.28;3.95;;;2.00;88.40;;;;;;5045184;28;20032;-68
2022/01/29 07:00:26;;;;;;;9.35;4.88;;;2.00;88.40;;;;;;5049250;28;20025;-68
2022/01/29 07:02:52;;;;;;;11.45;5.53;;;2.10;87.90;;;;;;5041979;28;20095;-68
2022/01/29 07:05:18;;;;;;;14.90;6.95;;;2.10;87.50;;;;;;5051244;28;20450;-67
2022/01/29 07:07:43;;;;;;;20.85;9.52;;;2.20;87.70;;;;;;5040464;28;20430;-66
2022/01/29 07:10:10;;;;;;;16.58;7.30;;;2.20;87.90;;;;;;5040537;28;20026;-67
2022/01/29 07:12:40;;;;;;;15.77;6.82;;;2.20;88.10;;;;;;5055200;28;20025;-67
2022/01/29 07:15:07;;;;;;;21.40;9.63;;;2.20;87.40;;;;;;5056548;28;20025;-67
2022/01/29 07:17:34;;;;;;;12.35;6.10;;;2.20;87.50;;;;;;5055106;28;20417;-67
2022/01/29 07:20:00;;;;;;;8.27;3.80;;;2.20;87.60;;;;;;5051770;28;20036;-67
2022/01/29 07:22:25;;;;;;;12.77;8.90;;;2.20;87.60;;;;;;5053552;28;20086;-68
2022/01/29 07:24:51;;;;;;;8.48;5.20;;;2.20;87.50;;;;;;5055405;28;20494;-68
2022/01/29 07:27:17;;;;;;;9.07;4.20;;;2.20;87.50;;;;;;5048122;28;20033;-68
2022/01/29 07:29:50;;;;;;;5.28;3.10;;;2.30;87.30;;;;;;5049226;28;20028;-68
2022/01/29 07:32:16;;;;;;;7.75;4.10;;;2.30;87.40;;;;;;5044911;28;20068;-67
2022/01/29 07:34:41;;;;;;;7.18;3.55;;;2.20;87.50;;;;;;5044794;28;20057;-68
2022/01/29 07:37:07;;;;;;;6.43;3.05;;;2.20;87.90;;;;;;5038102;28;20120;-68
2022/01/29 07:39:33;;;;;;;8.30;3.45;;;2.20;87.80;;;;;;5039854;28;20029;-68
2022/01/29 07:41:59;;;;;;;6.63;3.35;;;2.20;88.30;;;;;;5038570;28;20095;-68
2022/01/29 07:44:27;;;;;;;5.88;3.58;;;2.20;88.40;;;;;;5048135;28;20060;-68
2022/01/29 07:46:53;;;;;;;6.45;3.60;;;2.20;88.50;;;;;;5044248;28;20025;-68
2022/01/29 07:49:19;;;;;;;5.65;3.17;;;2.20;88.80;;;;;;5038551;28;20505;-67
2022/01/29 07:51:45;;;;;;;10.00;3.88;;;2.20;88.60;;;;;;5039071;28;20033;-67
2022/01/29 07:54:10;;;;;;;9.60;3.63;;;2.20;88.80;;;;;;5048639;28;20025;-67
2022/01/29 07:56:36;;;;;;;13.68;6.90;;;2.20;88.80;;;;;;5053318;28;20100;-68
2022/01/29 07:59:03;;;;;;;14.07;7.07;;;2.20;89.30;;;;;;5055705;28;20037;-68
2022/01/29 08:01:31;;;;;;;12.50;5.57;;;2.10;89.80;;;;;;5039789;28;20037;-68
2022/01/29 08:03:57;;;;;;;10.43;5.63;;;2.20;89.90;;;;;;5037162;28;20060;-68
2022/01/29 08:06:23;;;;;;;10.82;5.95;;;2.20;90.00;;;;;;5048656;28;20060;-68
2022/01/29 08:08:53;;;;;;;9.50;5.20;;;2.20;90.60;;;;;;5035812;28;20043;-67
2022/01/29 08:11:19;;;;;;;9.75;4.85;;;2.10;90.90;;;;;;5042459;28;20083;-68
2022/01/29 08:13:48;;;;;;;9.60;4.40;;;2.10;91.00;;;;;;5035184;28;20021;-67
2022/01/29 08:16:17;;;;;;;12.02;5.75;;;2.10;91.30;;;;;;5036171;28;20032;-68
2022/01/29 08:18:46;;;;;;;8.38;4.20;;;2.10;91.50;;;;;;5053019;28;20038;-68
2022/01/29 08:21:18;;;;;;;7.97;4.60;;;2.00;91.70;;;;;;5038832;28;20034;-66
2022/01/29 08:23:44;;;;;;;9.23;5.05;;;1.90;91.90;;;;;;5047676;28;20144;-67
2022/01/29 08:26:11;;;;;;;8.48;4.25;;;1.90;92.20;;;;;;5047851;28;20458;-68
2022/01/29 08:28:37;;;;;;;10.00;5.50;;;1.90;92.00;;;;;;5038125;28;20033;-67
2022/01/29 08:31:03;;;;;;;9.30;5.10;;;1.90;92.10;;;;;;5053267;28;20033;-69
2022/01/29 08:33:29;;;;;;;8.82;4.88;;;1.90;92.40;;;;;;5049107;28;20033;-69
2022/01/29 08:35:56;;;;;;;8.63;4.72;;;2.00;92.20;;;;;;5042348;28;20051;-68
2022/01/29 08:38:22;;;;;;;9.77;4.15;;;2.00;92.40;;;;;;5051920;28;20078;-67
2022/01/29 08:40:48;;;;;;;8.05;4.60;;;2.00;92.40;;;;;;5060972;28;20029;-68
2022/01/29 08:43:14;;;;;;;10.00;4.53;;;2.00;92.50;;;;;;5040122;28;20042;-68
2022/01/29 08:45:40;;;;;;;11.35;6.35;;;2.10;92.60;;;;;;5042632;28;20511;-68
2022/01/29 08:48:06;;;;;;;9.40;5.20;;;2.10;92.70;;;;;;5043874;28;20053;-69
2022/01/29 08:50:32;;;;;;;8.55;4.70;;;2.10;92.90;;;;;;5039330;28;20033;-69
2022/01/29 08:52:58;;;;;;;8.27;4.93;;;2.10;92.50;;;;;;5042592;28;20029;-69
2022/01/29 08:55:24;;;;;;;8.13;4.45;;;2.00;92.40;;;;;;5044177;28;20151;-67
2022/01/29 08:57:50;;;;;;;9.68;5.30;;;2.00;91.90;;;;;;5044826;28;20027;-67
2022/01/29 09:00:17;;;;;;;7.15;4.38;;;2.00;92.00;;;;;;5042841;28;20103;-67
2022/01/29 09:02:46;;;;;;;8.57;4.35;;;2.00;91.80;;;;;;5035102;28;20025;-66
2022/01/29 09:05:13;;;;;;;10.10;5.60;;;2.10;91.70;;;;;;5047283;28;20021;-68
2022/01/29 09:07:41;;;;;;;10.90;6.57;;;2.00;91.70;;;;;;5045348;28;20418;-68
2022/01/29 09:10:07;;;;;;;8.90;4.53;;;2.10;91.60;;;;;;5038837;28;20120;-68
2022/01/29 09:12:33;;;;;;;9.23;5.40;;;2.30;91.30;;;;;;5044799;28;20017;-68
2022/01/29 09:14:59;;;;;;;8.13;4.50;;;2.40;91.10;;;;;;5034845;28;20083;-68
2022/01/29 09:17:24;;;;;;;11.57;6.40;;;2.40;90.80;;;;;;5036098;28;20029;-68
2022/01/29 09:19:50;;;;;;;11.23;5.90;;;2.50;90.80;;;;;;5043272;28;20103;-69
2022/01/29 09:22:16;;;;;;;9.38;5.30;;;2.60;91.00;;;;;;5035138;28;20040;-67
2022/01/29 09:24:42;;;;;;;9.43;5.03;;;2.70;91.00;;;;;;5041336;28;20056;-68
2022/01/29 09:27:07;;;;;;;9.50;5.60;;;2.70;91.00;;;;;;5035959;28;20033;-67
2022/01/29 09:29:33;;;;;;;9.18;5.82;;;2.60;91.30;;;;;;5041355;28;20025;-68
2022/01/29 09:31:59;;;;;;;9.95;5.60;;;2.50;91.40;;;;;;5039798;28;20021;-67
2022/01/29 09:34:24;;;;;;;9.18;5.45;;;2.50;91.80;;;;;;5037927;28;20075;-69
2022/01/29 09:36:50;;;;;;;10.82;5.90;;;2.40;92.20;;;;;;5042919;28;20033;-69
2022/01/29 09:39:15;;;;;;;10.02;5.45;;;2.50;92.50;;;;;;5051294;28;20441;-69
2022/01/29 09:41:47;;;;;;;10.07;5.40;;;2.50;92.80;;;;;;5036968;28;20026;-68
2022/01/29 09:44:16;;;;;;;9.52;5.53;;;2.60;93.10;;;;;;5034983;28;20027;-69
2022/01/29 09:46:44;;;;;;;8.63;4.97;;;2.80;93.00;;;;;;5038242;28;20059;-68
2022/01/29 09:49:11;;;;;;;7.28;4.70;;;3.00;93.40;;;;;;5033128;28;20036;-68
2022/01/29 09:51:40;;;;;;;8.48;5.13;;;3.10;94.10;;;;;;5036540;28;20106;-68
2022/01/29 09:54:06;;;;;;;7.03;3.97;;;3.40;94.00;;;;;;5043154;28;20095;-68
2022/01/29 09:56:35;;;;;;;6.65;3.58;;;3.50;93.90;;;;;;5033767;28;20038;-69
2022/01/29 09:59:01;;;;;;;6.93;4.20;;;3.60;94.20;;;;;;5045328;28;20104;-68
2022/01/29 10:01:27;;;;;;;6.78;3.55;;;3.70;94.20;;;;;;5037572;28;20112;-68
2022/01/29 10:04:06;;;;;;;6.97;3.95;;;3.50;95.50;;;;;;5037150;28;20395;-69
2022/01/29 10:06:32;;;;;;;20.05;8.85;;;3.50;96.10;;;;;;5033299;28;20458;-69
2022/01/29 10:08:59;;;;;;;10.48;5.97;;;3.60;95.70;;;;;;5037153;28;20021;-68
2022/01/29 10:11:27;;;;;;;8.38;4.63;;;3.70;94.90;;;;;;5048111;28;20039;-67
2022/01/29 10:14:02;;;;;;;12.38;6.97;;;3.60;94.70;;;;;;5038217;28;20756;-68
2022/01/29 10:16:30;;;;;;;9.50;4.70;;;3.70;94.50;;;;;;5040012;28;20424;-68
2022/01/29 10:19:09;;;;;;;7.90;4.13;;;3.80;92.80;;;;;;5051336;28;20421;-66
2022/01/29 10:21:42;;;;;;;7.05;4.00;;;3.90;91.80;;;;;;5043342;28;20056;-68
2022/01/29 10:24:12;;;;;;;7.40;4.10;;;3.70;91.40;;;;;;5032535;28;20050;-68
2022/01/29 10:26:48;;;;;;;7.53;3.78;;;3.90;91.20;;;;;;5046584;28;20034;-68
2022/01/29 10:29:20;;;;;;;6.97;3.85;;;3.80;90.50;;;;;;5074897;28;20035;-68
2022/01/29 10:31:48;;;;;;;7.68;4.40;;;3.60;91.00;;;;;;5045556;28;20042;-68
2022/01/29 10:34:35;;;;;;;8.02;4.47;;;3.40;91.70;;;;;;5056571;28;20032;-67
2022/01/29 10:37:21;;;;;;;6.80;3.58;;;3.40;91.50;;;;;;5056604;28;20028;-66
2022/01/29 10:39:55;;;;;;;7.30;3.78;;;3.50;91.30;;;;;;5055071;28;20104;-68
2022/01/29 10:42:25;;;;;;;6.57;4.03;;;4.10;89.70;;;;;;5041102;28;20326;-67
2022/01/29 10:44:54;;;;;;;8.07;4.60;;;4.70;88.00;;;;;;5041858;28;20048;-67
2022/01/29 10:47:22;;;;;;;7.32;3.38;;;5.40;86.10;;;;;;5048424;28;20021;-67
2022/01/29 10:49:57;;;;;;;6.97;3.55;;;5.40;85.20;;;;;;5053632;28;20067;-67
2022/01/29 10:52:34;;;;;;;6.90;3.78;;;5.00;85.70;;;;;;5036355;28;20030;-67
2022/01/29 10:55:04;;;;;;;9.00;4.97;;;4.70;86.90;;;;;;5037115;28;20025;-67
2022/01/29 10:57:35;;;;;;;9.23;5.18;;;4.50;87.40;;;;;;5041343;28;20119;-67
2022/01/29 11:00:03;;;;;;;6.97;3.50;;;4.30;88.10;;;;;;5043286;28;20032;-68
2022/01/29 11:02:30;;;;;;;6.95;3.85;;;4.30;88.00;;;;;;5037160;28;20507;-67
2022/01/29 11:04:57;;;;;;;6.60;3.70;;;4.50;88.00;;;;;;5037809;28;20036;-68
2022/01/29 11:07:28;;;;;;;9.77;4.70;;;4.70;87.30;;;;;;5038147;28;20025;-68
2022/01/29 11:09:54;;;;;;;9.27;5.82;;;4.60;87.60;;;;;;5053551;28;20028;-66
2022/01/29 11:12:24;;;;;;;9.73;4.53;;;4.60;87.90;;;;;;5054394;28;20090;-67
2022/01/29 11:14:52;;;;;;;7.75;4.68;;;5.00;87.10;;;;;;5051716;28;20822;-68
2022/01/29 11:17:19;;;;;;;6.40;3.90;;;5.40;86.00;;;;;;5035917;28;20032;-67
2022/01/29 11:19:46;;;;;;;7.22;3.35;;;6.00;84.00;;;;;;5051827;28;20036;-67
2022/01/29 11:22:13;;;;;;;8.00;3.30;;;6.10;83.10;;;;;;5051371;28;20040;-66
2022/01/29 11:24:42;;;;;;;7.00;3.00;;;5.80;83.70;;;;;;5037474;28;20194;-67
2022/01/29 11:27:23;;;;;;;7.07;2.85;;;5.60;85.70;;;;;;5044413;28;20353;-67
2022/01/29 11:30:12;;;;;;;4.50;2.30;;;5.50;86.40;;;;;;5041128;28;20090;-67
2022/01/29 11:32:46;;;;;;;5.75;2.83;;;5.50;87.30;;;;;;5052865;28;20025;-67
2022/01/29 11:35:16;;;;;;;5.93;2.67;;;5.60;87.10;;;;;;5040607;28;20057;-67
2022/01/29 11:38:03;;;;;;;5.75;2.97;;;5.50;86.60;;;;;;5051785;28;20040;-67
2022/01/29 11:40:32;;;;;;;9.10;2.75;;;5.50;86.70;;;;;;5053044;28;20385;-68
2022/01/29 11:43:13;;;;;;;6.43;2.78;;;5.60;87.10;;;;;;5043913;28;20021;-67
2022/01/29 11:45:55;;;;;;;6.20;2.30;;;5.60;86.60;;;;;;5038170;28;20468;-66
2022/01/29 11:48:31;;;;;;;4.78;2.08;;;5.50;85.90;;;;;;5033292;28;20480;-67
2022/01/29 11:51:08;;;;;;;5.70;2.97;;;5.30;86.40;;;;;;5034158;28;20083;-67
2022/01/29 11:53:46;;;;;;;5.60;2.92;;;5.20;87.00;;;;;;5041326;28;20029;-67
2022/01/29 11:56:34;;;;;;;5.45;2.80;;;5.30;86.50;;;;;;5039181;28;20060;-67
2022/01/29 11:59:24;;;;;;;5.85;2.20;;;5.40;86.30;;;;;;5044154;28;20029;-67
2022/01/29 12:02:01;;;;;;;6.65;2.92;;;5.20;86.30;;;;;;5041593;28;20038;-68
2022/01/29 12:04:51;;;;;;;5.00;2.50;;;5.20;86.50;;;;;;5033804;28;20444;-67
2022/01/29 12:09:47;;;;;;;4.90;2.40;;;5.50;85.90;;;;;;5040662;28;20072;-67
2022/01/29 12:12:27;;;;;;;6.97;3.10;;;5.60;85.60;;;;;;5054688;28;20024;-68
2022/01/29 12:14:56;;;;;;;7.28;2.92;;;5.80;85.30;;;;;;5052334;28;20481;-67
2022/01/29 12:17:51;;;;;;;5.05;2.50;;;5.90;84.80;;;;;;5041233;28;20478;-66
2022/01/29 12:20:21;;;;;;;;;;;5.90;84.10;;;;;;5053299;28;20025;-66
2022/01/29 12:22:48;;;;;;;8.57;2.70;;;5.90;84.30;;;;;;5054384;28;19915;-66
2022/01/29 12:25:23;;;;;;;5.13;2.97;;;5.90;84.00;;;;;;5050387;28;20049;-66
2022/01/29 12:27:59;;;;;;;5.80;2.70;;;5.90;84.20;;;;;;5035414;28;20080;-68
2022/01/29 12:30:30;;;;;;;6.22;3.20;;;6.20;84.30;;;;;;5039709;28;20442;-67
2022/01/29 12:33:03;;;;;;;7.53;3.90;;;6.40;83.30;;;;;;5047330;28;20029;-68
2022/01/29 12:35:32;;;;;;;5.80;2.90;;;6.60;82.90;;;;;;5044041;28;20036;-68
2022/01/29 12:38:00;;;;;;;6.45;2.80;;;6.40;82.60;;;;;;5045304;28;20067;-68
2022/01/29 12:40:27;;;;;;;5.88;2.80;;;6.30;83.20;;;;;;5046694;28;20029;-66
2022/01/29 12:42:58;;;;;;;4.97;2.95;;;6.20;83.80;;;;;;5042001;28;20033;-68
2022/01/29 12:45:31;;;;;;;5.72;2.70;;;6.10;83.70;;;;;;5040321;28;20389;-67
2022/01/29 12:48:12;;;;;;;5.32;2.58;;;5.90;84.20;;;;;;5039504;28;20021;-67
2022/01/29 12:50:39;;;;;;;7.45;3.33;;;5.80;84.40;;;;;;5037897;28;20034;-67
2022/01/29 12:53:20;;;;;;;6.18;3.03;;;5.80;84.40;;;;;;5050002;28;20020;-66
2022/01/29 12:56:03;;;;;;;6.10;3.30;;;5.80;84.80;;;;;;5042841;28;20025;-67
2022/01/29 12:58:35;;;;;;;7.78;3.35;;;5.80;85.00;;;;;;5035295;28;20037;-66
2022/01/29 13:01:05;;;;;;;6.85;3.25;;;5.90;85.60;;;;;;5037869;28;20040;-67
2022/01/29 13:03:32;;;;;;;7.72;3.75;;;6.00;85.50;;;;;;5043217;28;20037;-67
2022/01/29 13:06:07;;;;;;;6.18;3.00;;;6.00;85.60;;;;;;5045721;28;20464;-67
2022/01/29 13:08:33;;;;;;;6.15;2.80;;;5.90;86.10;;;;;;5038740;28;21544;-68
2022/01/29 13:10:59;;;;;;;6.95;3.65;;;6.00;86.50;;;;;;5034124;28;20061;-67
2022/01/29 13:13:26;;;;;;;5.90;3.20;;;6.10;86.90;;;;;;5036468;28;20056;-68